Chestnut, New Jersey
Current Conditions -  °F | °C
As of 4:51 AM on Saturday 25 Oct 2014 (Local Time) from KEWR Reporting Station
Scattered Clouds Scattered Clouds  
Wind Chill: 52°   Ceiling: Unl
Heat Index: 52°   Visibility: 10mi
Dew Point: 37°   Wind: 5mph
Humidity: 57%   Direction: 300°WNW
Pressure: 29.87"   Gusts: NA
Location:  40.6941°N, 74.2694°W
Report Text: KEWR 250851Z 30004KT 10SM SCT250 11/03 A2987 RMK AO2 SLP113 T01110028 51001
Loading
Personal Weather Stations






























Interactive Weather Map
Tropical Storm Tracking
New forecast layout! Learn more

10-Day Weather Forecast

Advertisements
Track Severe Weather on mobile